sensor_id;sensor_type;location;lat;lon;timestamp;pressure;altitude;pressure_sealevel;temperature;humidity
11643;BME280;5877;50.930;6.918;2023-05-07T00:02:28;100684.47;;;12.85;81.18
11643;BME280;5877;50.930;6.918;2023-05-07T00:07:21;100841.31;;;14.01;80.51
11643;BME280;5877;50.930;6.918;2023-05-07T00:12:14;100753.19;;;13.67;79.99
11643;BME280;5877;50.930;6.918;2023-05-07T00:17:07;100708.09;;;13.33;79.41
11643;BME280;5877;50.930;6.918;2023-05-07T00:22:03;100752.38;;;13.54;79.50
11643;BME280;5877;50.930;6.918;2023-05-07T00:26:55;100715.09;;;13.51;79.14
11643;BME280;5877;50.930;6.918;2023-05-07T00:31:51;100763.00;;;13.48;80.26
11643;BME280;5877;50.930;6.918;2023-05-07T00:36:44;100889.84;;;14.00;81.37
11643;BME280;5877;50.930;6.918;2023-05-07T00:41:37;100783.59;;;13.27;81.39
11643;BME280;5877;50.930;6.918;2023-05-07T01:05:31;100883.63;;;13.82;81.36
11643;BME280;5877;50.930;6.918;2023-05-07T01:10:25;100979.97;;;14.56;80.82
11643;BME280;5877;50.930;6.918;2023-05-07T01:15:19;100679.63;;;12.70;80.02
11643;BME280;5877;50.930;6.918;2023-05-07T01:20:18;100673.13;;;12.84;79.72
11643;BME280;5877;50.930;6.918;2023-05-07T01:25:13;100759.88;;;13.27;79.74
11643;BME280;5877;50.930;6.918;2023-05-07T01:30:16;100862.31;;;14.07;79.42
11643;BME280;5877;50.930;6.918;2023-05-07T01:35:13;100694.75;;;12.75;79.80
11643;BME280;5877;50.930;6.918;2023-05-07T01:40:08;100847.72;;;13.93;79.71
11643;BME280;5877;50.930;6.918;2023-05-07T01:45:05;100685.19;;;12.92;79.12
11643;BME280;5877;50.930;6.918;2023-05-07T01:49:57;100716.03;;;13.15;79.32
11643;BME280;5877;50.930;6.918;2023-05-07T01:54:50;100749.50;;;13.14;80.17
11643;BME280;5877;50.930;6.918;2023-05-07T01:59:43;100820.47;;;13.57;80.85
11643;BME280;5877;50.930;6.918;2023-05-07T02:04:35;100964.28;;;14.32;81.31
11643;BME280;5877;50.930;6.918;2023-05-07T02:09:29;100804.44;;;13.17;81.68
11643;BME280;5877;50.930;6.918;2023-05-07T02:14:23;100678.88;;;12.33;81.85
11643;BME280;5877;50.930;6.918;2023-05-07T02:19:15;100833.78;;;13.21;82.17
11643;BME280;5877;50.930;6.918;2023-05-07T02:24:09;100954.22;;;13.98;82.04
11643;BME280;5877;50.930;6.918;2023-05-07T02:29:02;100625.28;;;11.79;82.22
11643;BME280;5877;50.930;6.918;2023-05-07T02:34:05;100786.22;;;12.67;83.01
11643;BME280;5877;50.930;6.918;2023-05-07T02:38:59;100682.13;;;11.98;82.31
11643;BME280;5877;50.930;6.918;2023-05-07T02:43:52;100719.97;;;12.34;82.29
11643;BME280;5877;50.930;6.918;2023-05-07T02:48:45;100793.16;;;12.80;81.90
11643;BME280;5877;50.930;6.918;2023-05-07T02:53:38;100812.00;;;12.95;81.62
11643;BME280;5877;50.930;6.918;2023-05-07T02:58:30;100692.13;;;12.08;82.10
11643;BME280;5877;50.930;6.918;2023-05-07T03:03:25;100674.16;;;12.05;82.42
11643;BME280;5877;50.930;6.918;2023-05-07T03:08:17;100775.31;;;12.64;82.12
11643;BME280;5877;50.930;6.918;2023-05-07T03:13:09;100625.78;;;11.88;81.60
11643;BME280;5877;50.930;6.918;2023-05-07T03:18:03;100791.25;;;12.69;82.13
11643;BME280;5877;50.930;6.918;2023-05-07T03:22:57;100735.19;;;12.32;82.43
11643;BME280;5877;50.930;6.918;2023-05-07T03:27:50;100838.34;;;12.95;82.86
11643;BME280;5877;50.930;6.918;2023-05-07T03:32:46;100668.38;;;11.78;83.19
11643;BME280;5877;50.930;6.918;2023-05-07T03:37:39;100621.66;;;11.55;83.47
11643;BME280;5877;50.930;6.918;2023-05-07T03:42:33;100850.13;;;12.93;83.80
11643;BME280;5877;50.930;6.918;2023-05-07T03:47:26;100756.03;;;12.33;83.44
11643;BME280;5877;50.930;6.918;2023-05-07T03:52:19;100556.06;;;11.24;82.61
11643;BME280;5877;50.930;6.918;2023-05-07T03:57:15;100764.00;;;12.45;82.73
11643;BME280;5877;50.930;6.918;2023-05-07T04:02:14;100982.50;;;13.80;83.06
11643;BME280;5877;50.930;6.918;2023-05-07T04:07:07;100739.41;;;12.33;82.03
11643;BME280;5877;50.930;6.918;2023-05-07T04:12:04;100811.66;;;13.04;81.49
11643;BME280;5877;50.930;6.918;2023-05-07T04:16:59;100900.16;;;13.89;80.24
11643;BME280;5877;50.930;6.918;2023-05-07T04:21:53;100785.66;;;13.25;79.19
11643;BME280;5877;50.930;6.918;2023-05-07T04:26:46;100770.19;;;13.29;77.97
11643;BME280;5877;50.930;6.918;2023-05-07T04:31:39;100724.63;;;12.98;78.05
11643;BME280;5877;50.930;6.918;2023-05-07T04:36:33;100896.72;;;14.01;78.11
11643;BME280;5877;50.930;6.918;2023-05-07T04:41:35;100870.44;;;13.94;78.19
11643;BME280;5877;50.930;6.918;2023-05-07T04:46:31;100982.59;;;14.91;77.11
11643;BME280;5877;50.930;6.918;2023-05-07T04:51:24;100806.19;;;14.00;76.31
11643;BME280;5877;50.930;6.918;2023-05-07T04:56:16;100918.28;;;14.74;75.40
11643;BME280;5877;50.930;6.918;2023-05-07T05:01:11;100818.28;;;14.43;74.29
11643;BME280;5877;50.930;6.918;2023-05-07T05:06:05;100746.31;;;14.01;73.11
11643;BME280;5877;50.930;6.918;2023-05-07T05:11:01;100646.41;;;13.69;71.84
11643;BME280;5877;50.930;6.918;2023-05-07T05:15:55;100685.75;;;13.82;71.65
11643;BME280;5877;50.930;6.918;2023-05-07T05:20:51;100691.34;;;13.97;71.12
11643;BME280;5877;50.930;6.918;2023-05-07T05:25:45;100703.38;;;14.17;70.40
11643;BME280;5877;50.930;6.918;2023-05-07T05:30:39;100720.66;;;14.48;69.81
11643;BME280;5877;50.930;6.918;2023-05-07T05:35:32;100765.25;;;14.73;69.46
11643;BME280;5877;50.930;6.918;2023-05-07T05:40:29;100867.09;;;15.32;69.77
11643;BME280;5877;50.930;6.918;2023-05-07T05:45:22;100638.81;;;13.84;69.78
11643;BME280;5877;50.930;6.918;2023-05-07T05:50:15;100813.53;;;14.97;69.22
11643;BME280;5877;50.930;6.918;2023-05-07T05:55:12;100810.84;;;15.08;68.86
11643;BME280;5877;50.930;6.918;2023-05-07T06:00:06;100706.19;;;14.79;68.00
11643;BME280;5877;50.930;6.918;2023-05-07T06:05:09;100877.22;;;15.97;67.05
11643;BME280;5877;50.930;6.918;2023-05-07T06:10:02;100838.88;;;15.83;66.54
11643;BME280;5877;50.930;6.918;2023-05-07T06:14:56;100945.09;;;16.87;64.41
11643;BME280;5877;50.930;6.918;2023-05-07T06:19:49;100799.28;;;16.48;62.94
11643;BME280;5877;50.930;6.918;2023-05-07T06:24:44;101018.72;;;18.11;62.21
11643;BME280;5877;50.930;6.918;2023-05-07T06:29:37;100966.22;;;17.91;61.29
11643;BME280;5877;50.930;6.918;2023-05-07T06:34:37;100941.59;;;18.01;60.70
11643;BME280;5877;50.930;6.918;2023-05-07T06:39:32;100751.38;;;17.58;57.75
11643;BME280;5877;50.930;6.918;2023-05-07T06:44:25;100791.88;;;18.12;56.88
11643;BME280;5877;50.930;6.918;2023-05-07T06:49:32;100941.34;;;19.39;55.57
11643;BME280;5877;50.930;6.918;2023-05-07T06:54:26;100758.19;;;19.16;53.34
11643;BME280;5877;50.930;6.918;2023-05-07T06:59:18;100958.28;;;20.36;53.13
11643;BME280;5877;50.930;6.918;2023-05-07T07:04:13;100795.59;;;18.68;54.48
11643;BME280;5877;50.930;6.918;2023-05-07T07:09:07;100878.88;;;20.97;50.70
11643;BME280;5877;50.930;6.918;2023-05-07T07:14:00;100967.91;;;22.20;48.02
11643;BME280;5877;50.930;6.918;2023-05-07T07:18:54;100844.09;;;21.91;47.43
11643;BME280;5877;50.930;6.918;2023-05-07T07:23:47;100853.84;;;21.77;46.63
11643;BME280;5877;50.930;6.918;2023-05-07T07:28:43;100965.41;;;21.56;48.97
11643;BME280;5877;50.930;6.918;2023-05-07T07:33:39;100796.13;;;21.76;46.08
11643;BME280;5877;50.930;6.918;2023-05-07T07:38:32;101037.94;;;23.38;46.30
11643;BME280;5877;50.930;6.918;2023-05-07T07:43:25;100855.50;;;22.54;44.34
11643;BME280;5877;50.930;6.918;2023-05-07T07:48:17;100844.53;;;22.32;44.84
11643;BME280;5877;50.930;6.918;2023-05-07T07:58:04;100967.69;;;23.22;44.81
11643;BME280;5877;50.930;6.918;2023-05-07T08:02:57;100802.88;;;22.26;44.87
11643;BME280;5877;50.930;6.918;2023-05-07T08:07:56;100905.81;;;22.81;45.41
11643;BME280;5877;50.930;6.918;2023-05-07T08:12:54;100931.44;;;21.61;47.99
11643;BME280;5877;50.930;6.918;2023-05-07T08:17:47;100925.78;;;22.36;47.20
11643;BME280;5877;50.930;6.918;2023-05-07T08:22:41;100804.56;;;21.20;47.32
11643;BME280;5877;50.930;6.918;2023-05-07T08:27:34;100792.84;;;21.55;46.82
11643;BME280;5877;50.930;6.918;2023-05-07T08:32:26;100761.63;;;22.08;45.48
11643;BME280;5877;50.930;6.918;2023-05-07T08:37:21;100906.47;;;22.15;46.53
11643;BME280;5877;50.930;6.918;2023-05-07T08:42:16;101058.22;;;23.44;45.97
11643;BME280;5877;50.930;6.918;2023-05-07T08:47:10;100814.31;;;23.49;43.34
11643;BME280;5877;50.930;6.918;2023-05-07T08:52:05;100862.34;;;24.11;42.16
11643;BME280;5877;50.930;6.918;2023-05-07T08:57:01;100810.13;;;23.43;42.18
11643;BME280;5877;50.930;6.918;2023-05-07T09:01:57;100840.59;;;23.47;42.11
11643;BME280;5877;50.930;6.918;2023-05-07T09:06:50;100764.34;;;22.27;44.08
11643;BME280;5877;50.930;6.918;2023-05-07T09:11:46;100748.78;;;23.28;41.70
11643;BME280;5877;50.930;6.918;2023-05-07T09:16:42;100899.78;;;24.62;40.79
11643;BME280;5877;50.930;6.918;2023-05-07T09:21:36;100752.34;;;25.46;37.35
11643;BME280;5877;50.930;6.918;2023-05-07T09:26:32;100570.88;;;24.34;36.58
11643;BME280;5877;50.930;6.918;2023-05-07T09:31:28;101038.16;;;28.03;34.76
11643;BME280;5877;50.930;6.918;2023-05-07T09:36:21;100799.84;;;26.21;35.01
11643;BME280;5877;50.930;6.918;2023-05-07T09:41:15;100995.25;;;28.19;34.41
11643;BME280;5877;50.930;6.918;2023-05-07T09:46:33;101028.88;;;30.49;32.10
11643;BME280;5877;50.930;6.918;2023-05-07T09:51:51;100803.81;;;28.05;32.24
11643;BME280;5877;50.930;6.918;2023-05-07T09:56:48;100876.75;;;27.54;34.29
11643;BME280;5877;50.930;6.918;2023-05-07T10:01:43;100830.19;;;25.74;36.43
11643;BME280;5877;50.930;6.918;2023-05-07T10:06:40;100864.03;;;25.97;36.56
11643;BME280;5877;50.930;6.918;2023-05-07T10:11:35;100760.50;;;25.64;35.55
11643;BME280;5877;50.930;6.918;2023-05-07T10:16:35;100835.00;;;25.85;35.84
11643;BME280;5877;50.930;6.918;2023-05-07T10:21:37;100828.09;;;25.93;35.50
11643;BME280;5877;50.930;6.918;2023-05-07T10:26:58;100817.00;;;25.41;36.21
11643;BME280;5877;50.930;6.918;2023-05-07T10:37:21;100822.59;;;25.53;36.24
11643;BME280;5877;50.930;6.918;2023-05-07T10:42:14;100687.19;;;25.10;36.27
11643;BME280;5877;50.930;6.918;2023-05-07T10:47:15;100882.19;;;26.31;36.57
11643;BME280;5877;50.930;6.918;2023-05-07T10:57:38;101017.81;;;27.71;35.68
11643;BME280;5877;50.930;6.918;2023-05-07T11:03:06;101016.69;;;26.67;35.63
11643;BME280;5877;50.930;6.918;2023-05-07T11:08:23;100778.63;;;25.49;35.01
11643;BME280;5877;50.930;6.918;2023-05-07T11:14:00;101006.00;;;26.53;36.71
11643;BME280;5877;50.930;6.918;2023-05-07T11:19:01;100798.03;;;26.39;35.34
11643;BME280;5877;50.930;6.918;2023-05-07T11:24:02;100996.41;;;27.92;34.04
11643;BME280;5877;50.930;6.918;2023-05-07T11:29:19;100755.31;;;26.90;31.81
11643;BME280;5877;50.930;6.918;2023-05-07T11:34:24;100899.75;;;27.42;31.59
11643;BME280;5877;50.930;6.918;2023-05-07T11:39:24;100760.44;;;25.77;31.62
11643;BME280;5877;50.930;6.918;2023-05-07T11:44:18;100614.41;;;24.75;32.71
11643;BME280;5877;50.930;6.918;2023-05-07T11:49:11;100641.19;;;24.89;32.27
11643;BME280;5877;50.930;6.918;2023-05-07T11:54:04;100890.84;;;26.99;30.89
11643;BME280;5877;50.930;6.918;2023-05-07T11:59:02;101000.31;;;27.52;32.10
11643;BME280;5877;50.930;6.918;2023-05-07T12:04:05;100711.41;;;25.18;34.00
11643;BME280;5877;50.930;6.918;2023-05-07T12:08:57;100812.16;;;25.52;33.51
11643;BME280;5877;50.930;6.918;2023-05-07T12:13:50;100947.97;;;26.78;33.26
11643;BME280;5877;50.930;6.918;2023-05-07T12:18:44;100778.66;;;25.80;33.18
11643;BME280;5877;50.930;6.918;2023-05-07T12:23:38;100807.22;;;25.99;32.72
11643;BME280;5877;50.930;6.918;2023-05-07T12:28:37;100896.50;;;26.89;31.92
11643;BME280;5877;50.930;6.918;2023-05-07T12:33:32;100657.13;;;24.85;34.10
11643;BME280;5877;50.930;6.918;2023-05-07T12:38:25;100784.81;;;25.28;34.90
11643;BME280;5877;50.930;6.918;2023-05-07T12:43:24;100901.69;;;25.97;35.40
11643;BME280;5877;50.930;6.918;2023-05-07T12:48:19;100831.16;;;24.83;36.58
11643;BME280;5877;50.930;6.918;2023-05-07T12:53:12;100810.78;;;24.82;38.75
11643;BME280;5877;50.930;6.918;2023-05-07T12:58:06;100754.34;;;23.78;44.20
11643;BME280;5877;50.930;6.918;2023-05-07T13:02:58;100972.94;;;25.50;40.40
11643;BME280;5877;50.930;6.918;2023-05-07T13:07:57;100783.00;;;24.23;46.30
11643;BME280;5877;50.930;6.918;2023-05-07T13:12:53;100931.72;;;25.05;44.74
11643;BME280;5877;50.930;6.918;2023-05-07T13:17:46;100940.38;;;24.74;47.50
11643;BME280;5877;50.930;6.918;2023-05-07T13:22:39;100758.25;;;23.39;45.96
11643;BME280;5877;50.930;6.918;2023-05-07T13:27:32;100791.94;;;24.05;44.48
11643;BME280;5877;50.930;6.918;2023-05-07T13:32:27;100718.41;;;23.79;43.93
11643;BME280;5877;50.930;6.918;2023-05-07T13:37:20;100838.94;;;24.99;42.54
11643;BME280;5877;50.930;6.918;2023-05-07T13:42:12;100840.41;;;25.05;42.11
11643;BME280;5877;50.930;6.918;2023-05-07T13:47:06;100891.19;;;25.29;41.89
11643;BME280;5877;50.930;6.918;2023-05-07T13:52:00;100851.81;;;25.10;41.56
11643;BME280;5877;50.930;6.918;2023-05-07T13:56:53;100855.66;;;24.68;44.20
11643;BME280;5877;50.930;6.918;2023-05-07T14:01:45;100881.72;;;24.54;44.63
11643;BME280;5877;50.930;6.918;2023-05-07T14:06:39;101038.94;;;25.56;44.31
11643;BME280;5877;50.930;6.918;2023-05-07T14:11:32;100912.31;;;24.94;43.38
11643;BME280;5877;50.930;6.918;2023-05-07T14:16:26;100940.59;;;25.05;44.36
11643;BME280;5877;50.930;6.918;2023-05-07T14:21:19;100879.41;;;24.75;44.02
11643;BME280;5877;50.930;6.918;2023-05-07T14:26:11;100809.28;;;23.94;45.04
11643;BME280;5877;50.930;6.918;2023-05-07T14:31:05;100790.41;;;23.53;45.73
11643;BME280;5877;50.930;6.918;2023-05-07T14:35:58;100782.81;;;23.27;46.53
11643;BME280;5877;50.930;6.918;2023-05-07T14:40:50;100719.38;;;22.72;47.22
11643;BME280;5877;50.930;6.918;2023-05-07T14:45:45;100826.03;;;23.40;46.95
11643;BME280;5877;50.930;6.918;2023-05-07T14:50:38;100975.06;;;24.57;45.81
11643;BME280;5877;50.930;6.918;2023-05-07T14:55:31;100941.72;;;24.31;47.41
11643;BME280;5877;50.930;6.918;2023-05-07T15:00:36;100743.50;;;22.48;48.79
11643;BME280;5877;50.930;6.918;2023-05-07T15:05:29;100859.38;;;22.67;51.06
11643;BME280;5877;50.930;6.918;2023-05-07T15:10:21;100975.56;;;22.61;54.53
11643;BME280;5877;50.930;6.918;2023-05-07T15:15:13;100760.00;;;21.15;53.01
11643;BME280;5877;50.930;6.918;2023-05-07T15:20:06;100916.94;;;22.41;51.83
11643;BME280;5877;50.930;6.918;2023-05-07T15:24:59;100951.81;;;22.83;52.16
11643;BME280;5877;50.930;6.918;2023-05-07T15:29:51;101062.41;;;23.74;49.29
11643;BME280;5877;50.930;6.918;2023-05-07T15:34:45;100854.75;;;21.96;47.70
11643;BME280;5877;50.930;6.918;2023-05-07T15:39:40;101048.38;;;22.92;47.12
11643;BME280;5877;50.930;6.918;2023-05-07T15:44:33;101005.81;;;22.61;47.86
11643;BME280;5877;50.930;6.918;2023-05-07T15:49:26;101091.19;;;23.21;49.34
11643;BME280;5877;50.930;6.918;2023-05-07T15:54:20;100940.91;;;22.22;49.91
11643;BME280;5877;50.930;6.918;2023-05-07T15:59:12;101095.81;;;23.39;50.35
11643;BME280;5877;50.930;6.918;2023-05-07T16:04:08;101098.03;;;23.56;50.02
11643;BME280;5877;50.930;6.918;2023-05-07T16:09:01;100779.53;;;21.11;50.02
11643;BME280;5877;50.930;6.918;2023-05-07T16:13:54;101027.25;;;22.56;50.03
11643;BME280;5877;50.930;6.918;2023-05-07T16:18:48;100926.53;;;21.74;50.90
11643;BME280;5877;50.930;6.918;2023-05-07T16:23:40;100868.94;;;21.13;50.25
11643;BME280;5877;50.930;6.918;2023-05-07T16:28:32;100876.13;;;21.18;49.14
11643;BME280;5877;50.930;6.918;2023-05-07T16:33:25;100796.41;;;20.52;49.99
11643;BME280;5877;50.930;6.918;2023-05-07T16:38:17;100819.63;;;20.51;51.05
11643;BME280;5877;50.930;6.918;2023-05-07T16:43:10;100914.81;;;21.25;50.85
11643;BME280;5877;50.930;6.918;2023-05-07T16:48:02;101057.91;;;21.96;51.32
11643;BME280;5877;50.930;6.918;2023-05-07T16:52:55;100974.88;;;21.28;50.82
11643;BME280;5877;50.930;6.918;2023-05-07T16:57:49;100845.31;;;19.61;52.69
11643;BME280;5877;50.930;6.918;2023-05-07T17:02:45;100903.38;;;19.84;52.58
11643;BME280;5877;50.930;6.918;2023-05-07T17:07:38;101035.78;;;21.05;52.52
11643;BME280;5877;50.930;6.918;2023-05-07T17:12:30;100842.06;;;19.49;53.62
11643;BME280;5877;50.930;6.918;2023-05-07T17:17:23;100880.06;;;19.19;54.99
11643;BME280;5877;50.930;6.918;2023-05-07T17:22:16;101063.09;;;20.41;55.43
11643;BME280;5877;50.930;6.918;2023-05-07T17:27:08;100941.06;;;19.30;56.29
11643;BME280;5877;50.930;6.918;2023-05-07T17:32:01;101034.25;;;20.13;55.84
11643;BME280;5877;50.930;6.918;2023-05-07T17:36:53;101176.75;;;20.73;56.27
11643;BME280;5877;50.930;6.918;2023-05-07T17:41:47;101004.78;;;19.52;56.51
11643;BME280;5877;50.930;6.918;2023-05-07T17:46:39;100975.28;;;19.06;57.60
11643;BME280;5877;50.930;6.918;2023-05-07T17:51:32;101142.63;;;19.87;58.74
11643;BME280;5877;50.930;6.918;2023-05-07T17:56:44;100954.38;;;18.78;58.67
11643;BME280;5877;50.930;6.918;2023-05-07T18:01:37;101007.78;;;19.13;59.28
11643;BME280;5877;50.930;6.918;2023-05-07T18:06:29;100904.78;;;18.57;59.74
11643;BME280;5877;50.930;6.918;2023-05-07T18:11:23;101116.94;;;19.61;61.28
11643;BME280;5877;50.930;6.918;2023-05-07T18:16:15;100989.44;;;18.70;62.50
11643;BME280;5877;50.930;6.918;2023-05-07T18:21:11;101019.00;;;18.78;64.17
11643;BME280;5877;50.930;6.918;2023-05-07T18:26:09;101026.63;;;18.65;65.06
11643;BME280;5877;50.930;6.918;2023-05-07T18:31:03;101210.44;;;19.64;66.59
11643;BME280;5877;50.930;6.918;2023-05-07T18:35:55;101138.94;;;19.09;66.95
11643;BME280;5877;50.930;6.918;2023-05-07T18:40:48;100863.50;;;17.16;67.84
11643;BME280;5877;50.930;6.918;2023-05-07T18:45:42;101044.53;;;18.15;68.59
11643;BME280;5877;50.930;6.918;2023-05-07T18:50:43;101239.84;;;19.16;68.99
11643;BME280;5877;50.930;6.918;2023-05-07T18:55:36;101025.94;;;17.45;69.23
11643;BME280;5877;50.930;6.918;2023-05-07T19:00:28;101198.78;;;18.53;69.64
11643;BME280;5877;50.930;6.918;2023-05-07T19:05:20;100953.03;;;16.87;69.84
11643;BME280;5877;50.930;6.918;2023-05-07T20:06:21;101333.09;;;17.49;77.20
11643;BME280;5877;50.930;6.918;2023-05-07T21:11:41;101396.41;;;16.89;80.04
11643;BME280;5877;50.930;6.918;2023-05-07T21:29:58;100925.97;;;13.87;80.43
11643;BME280;5877;50.930;6.918;2023-05-07T21:34:58;101101.28;;;14.70;80.92
11643;BME280;5877;50.930;6.918;2023-05-07T21:39:57;101377.41;;;16.57;81.16
11643;BME280;5877;50.930;6.918;2023-05-07T21:44:50;101384.56;;;16.56;80.84
11643;BME280;5877;50.930;6.918;2023-05-07T21:49:42;101378.44;;;16.56;80.14
11643;BME280;5877;50.930;6.918;2023-05-07T21:54:35;101387.31;;;16.50;80.23
11643;BME280;5877;50.930;6.918;2023-05-07T21:59:27;101297.38;;;15.97;79.72
11643;BME280;5877;50.930;6.918;2023-05-07T22:04:19;101306.13;;;15.97;80.22
11643;BME280;5877;50.930;6.918;2023-05-07T22:09:11;101311.91;;;16.17;79.55
11643;BME280;5877;50.930;6.918;2023-05-07T22:14:03;101370.59;;;16.61;79.12
11643;BME280;5877;50.930;6.918;2023-05-07T22:18:55;101297.84;;;16.05;79.09
11643;BME280;5877;50.930;6.918;2023-05-07T22:23:47;101300.03;;;15.85;79.74
11643;BME280;5877;50.930;6.918;2023-05-07T22:28:40;101289.44;;;15.73;80.55
11643;BME280;5877;50.930;6.918;2023-05-07T22:33:33;101294.16;;;15.71;82.02
11643;BME280;5877;50.930;6.918;2023-05-07T22:38:25;101377.78;;;16.37;82.06
11643;BME280;5877;50.930;6.918;2023-05-07T22:43:19;101195.28;;;15.31;81.80
11643;BME280;5877;50.930;6.918;2023-05-07T22:48:11;101381.34;;;16.54;82.43
11643;BME280;5877;50.930;6.918;2023-05-07T22:53:04;101001.47;;;13.88;83.64
11643;BME280;5877;50.930;6.918;2023-05-07T22:57:56;101387.44;;;16.08;84.59
11643;BME280;5877;50.930;6.918;2023-05-07T23:02:48;101207.88;;;15.05;84.50
11643;BME280;5877;50.930;6.918;2023-05-07T23:07:41;101376.50;;;16.16;84.58
11643;BME280;5877;50.930;6.918;2023-05-07T23:12:35;101383.41;;;16.06;84.39
11643;BME280;5877;50.930;6.918;2023-05-07T23:17:27;101379.47;;;15.97;84.37
11643;BME280;5877;50.930;6.918;2023-05-07T23:22:19;101381.56;;;16.06;84.22
11643;BME280;5877;50.930;6.918;2023-05-07T23:27:11;101262.44;;;15.30;83.52
11643;BME280;5877;50.930;6.918;2023-05-07T23:32:04;101383.03;;;16.02;83.68
11643;BME280;5877;50.930;6.918;2023-05-07T23:36:57;101332.28;;;15.94;82.82
11643;BME280;5877;50.930;6.918;2023-05-07T23:41:49;101384.22;;;16.30;82.72
11643;BME280;5877;50.930;6.918;2023-05-07T23:46:43;100977.03;;;13.63;82.25
11643;BME280;5877;50.930;6.918;2023-05-07T23:51:36;101107.38;;;14.40;82.55
11643;BME280;5877;50.930;6.918;2023-05-07T23:56:32;101093.00;;;14.36;82.09
